createdAt,value
2022-10-31T00:02:08.874Z,20.90
2022-10-31T00:04:37.295Z,21.73
2022-10-31T00:07:06.501Z,25.02
2022-10-31T00:09:38.330Z,28.60
2022-10-31T00:12:08.270Z,25.90
2022-10-31T00:14:36.900Z,23.50
2022-10-31T00:17:07.436Z,27.25
2022-10-31T00:19:38.139Z,27.38
2022-10-31T00:22:18.462Z,25.90
2022-10-31T00:24:46.296Z,26.27
2022-10-31T00:27:17.339Z,16.30
2022-10-31T00:29:53.798Z,20.17
2022-10-31T00:32:23.161Z,19.05
2022-10-31T00:34:54.027Z,15.90
2022-10-31T00:37:24.562Z,21.70
2022-10-31T00:39:53.318Z,15.27
2022-10-31T00:42:22.299Z,19.05
2022-10-31T00:44:51.611Z,18.92
2022-10-31T00:47:19.693Z,17.20
2022-10-31T00:49:49.745Z,21.65
2022-10-31T00:52:20.605Z,19.23
2022-10-31T00:54:50.164Z,15.38
2022-10-31T00:57:18.910Z,16.85
2022-10-31T00:59:48.242Z,19.42
2022-10-31T01:02:17.317Z,15.27
2022-10-31T01:04:46.912Z,18.67
2022-10-31T01:07:15.687Z,20.60
2022-10-31T01:09:45.617Z,15.93
2022-10-31T01:12:13.796Z,16.02
2022-10-31T01:14:47.352Z,20.45
2022-10-31T01:17:15.684Z,13.98
2022-10-31T01:19:43.530Z,10.82
2022-10-31T01:22:11.506Z,18.75
2022-10-31T01:24:40.878Z,15.10
2022-10-31T01:27:08.882Z,17.23
2022-10-31T01:29:37.337Z,15.07
2022-10-31T01:32:06.252Z,15.02
2022-10-31T01:34:34.412Z,13.48
2022-10-31T01:37:04.127Z,23.30
2022-10-31T01:39:33.336Z,14.40
2022-10-31T01:42:02.159Z,18.40
2022-10-31T01:44:30.498Z,17.08
2022-10-31T01:47:28.286Z,23.88
2022-10-31T01:49:58.217Z,23.08
2022-10-31T01:52:28.193Z,28.00
2022-10-31T01:55:08.748Z,26.73
2022-10-31T01:57:39.014Z,28.73
2022-10-31T02:00:09.184Z,35.50
2022-10-31T02:02:43.416Z,29.40
2022-10-31T02:05:15.736Z,32.95
2022-10-31T02:08:01.437Z,33.80
2022-10-31T02:10:31.775Z,34.60
2022-10-31T02:13:01.266Z,36.05
2022-10-31T02:15:33.705Z,38.05
2022-10-31T02:18:05.546Z,31.02
2022-10-31T02:21:14.692Z,38.35
2022-10-31T02:24:20.762Z,49.60
2022-10-31T02:27:09.209Z,40.22
2022-10-31T02:30:19.947Z,32.47
2022-10-31T02:32:59.863Z,38.65
2022-10-31T02:35:51.942Z,33.95
2022-10-31T02:38:31.382Z,31.70
2022-10-31T02:41:11.811Z,30.17
2022-10-31T02:44:11.644Z,29.30
2022-10-31T02:47:00.704Z,33.42
2022-10-31T02:49:50.671Z,39.38
2022-10-31T02:52:29.346Z,28.02
2022-10-31T02:55:13.152Z,30.73
2022-10-31T02:57:41.987Z,31.05
2022-10-31T03:00:24.079Z,26.65
2022-10-31T03:03:15.003Z,22.10
2022-10-31T03:05:54.033Z,23.80
2022-10-31T03:08:49.297Z,20.52
2022-10-31T03:11:18.212Z,18.95
2022-10-31T03:13:49.683Z,14.65
2022-10-31T03:16:43.403Z,13.85
2022-10-31T03:19:16.806Z,9.32
2022-10-31T03:21:58.204Z,11.52
2022-10-31T03:24:28.749Z,14.35
2022-10-31T03:26:58.917Z,9.40
2022-10-31T03:29:29.057Z,6.90
2022-10-31T03:32:00.732Z,15.77
2022-10-31T03:34:28.736Z,8.60
2022-10-31T03:36:58.486Z,7.70
2022-10-31T03:39:27.940Z,5.93
2022-10-31T03:42:05.307Z,7.75
2022-10-31T03:44:34.195Z,7.97
2022-10-31T03:47:05.377Z,9.45
2022-10-31T03:49:35.971Z,9.32
2022-10-31T03:52:09.875Z,8.38
2022-10-31T03:54:44.444Z,6.18
2022-10-31T03:57:22.468Z,5.30
2022-10-31T04:00:09.421Z,7.32
2022-10-31T04:02:59.838Z,5.63
2022-10-31T04:05:30.960Z,9.98
2022-10-31T04:08:04.500Z,7.50
2022-10-31T04:10:34.060Z,6.45
2022-10-31T04:13:13.641Z,11.20
2022-10-31T04:15:53.742Z,9.18
2022-10-31T04:18:25.884Z,7.28
2022-10-31T04:21:05.837Z,11.60
2022-10-31T04:23:36.091Z,6.25
2022-10-31T04:26:14.596Z,7.65
2022-10-31T04:28:47.127Z,7.43
2022-10-31T04:31:17.826Z,10.00
2022-10-31T04:33:47.885Z,6.90
2022-10-31T04:36:18.191Z,7.78
2022-10-31T04:38:47.158Z,4.72
2022-10-31T04:41:30.392Z,5.78
2022-10-31T04:44:04.174Z,11.93
2022-10-31T04:46:32.295Z,6.10
2022-10-31T04:49:02.620Z,7.45
2022-10-31T04:51:31.272Z,8.10
2022-10-31T04:53:59.985Z,10.07
2022-10-31T04:56:31.511Z,6.78
2022-10-31T04:59:03.334Z,8.13
2022-10-31T05:01:42.327Z,7.57
2022-10-31T05:04:12.303Z,7.97
2022-10-31T05:06:41.214Z,11.70
2022-10-31T05:09:11.188Z,5.90
2022-10-31T05:11:42.178Z,11.27
2022-10-31T05:14:29.467Z,10.30
2022-10-31T05:17:17.156Z,5.97
2022-10-31T05:20:05.660Z,5.30
2022-10-31T05:23:04.280Z,5.95
2022-10-31T05:25:34.352Z,6.32
2022-10-31T05:28:05.661Z,7.18
2022-10-31T05:30:36.072Z,9.15
2022-10-31T05:33:06.149Z,8.85
2022-10-31T05:36:01.464Z,7.03
2022-10-31T05:38:38.558Z,10.05
2022-10-31T05:41:14.098Z,5.20
2022-10-31T05:43:46.908Z,6.57
2022-10-31T05:46:15.943Z,10.77
2022-10-31T05:49:03.080Z,3.90
2022-10-31T05:52:05.242Z,8.90
2022-10-31T05:54:50.307Z,4.03
2022-10-31T05:57:19.196Z,5.40
2022-10-31T05:59:53.853Z,8.98
2022-10-31T06:02:25.234Z,7.28
2022-10-31T06:05:25.354Z,7.57
2022-10-31T06:07:54.083Z,5.43
2022-10-31T06:10:22.462Z,6.55
2022-10-31T06:12:55.056Z,6.65
2022-10-31T06:15:32.182Z,8.45
2022-10-31T06:18:05.386Z,4.95
2022-10-31T06:20:47.485Z,3.40
2022-10-31T06:23:17.287Z,4.85
2022-10-31T06:25:53.862Z,4.93
2022-10-31T06:28:22.258Z,5.07
2022-10-31T06:30:57.527Z,2.75
2022-10-31T06:33:25.606Z,6.35
2022-10-31T06:35:59.231Z,2.55
2022-10-31T06:38:52.025Z,2.13
2022-10-31T06:41:26.311Z,2.42
2022-10-31T06:43:56.385Z,3.40
2022-10-31T06:46:50.433Z,2.40
2022-10-31T06:49:39.924Z,7.90
2022-10-31T06:52:15.687Z,4.28
2022-10-31T06:54:48.874Z,3.88
2022-10-31T06:57:17.550Z,5.65
2022-10-31T06:59:46.281Z,1.58
2022-10-31T07:02:41.275Z,2.60
2022-10-31T07:05:10.400Z,3.65
2022-10-31T07:07:42.134Z,2.40
2022-10-31T07:10:14.078Z,4.28
2022-10-31T07:12:59.986Z,3.15
2022-10-31T07:15:40.216Z,3.83
2022-10-31T07:18:10.122Z,5.82
2022-10-31T07:20:45.359Z,5.43
2022-10-31T07:23:20.710Z,5.97
2022-10-31T07:26:09.763Z,2.40
2022-10-31T07:28:43.327Z,2.08
2022-10-31T07:31:18.912Z,2.88
2022-10-31T07:33:50.306Z,2.10
2022-10-31T07:36:55.364Z,2.28
2022-10-31T07:39:23.922Z,2.05
2022-10-31T07:41:52.100Z,4.07
2022-10-31T07:44:26.067Z,2.90
2022-10-31T07:47:24.834Z,0.85
2022-10-31T07:50:17.299Z,1.95
2022-10-31T07:53:20.687Z,0.82
2022-10-31T07:56:01.569Z,1.23
2022-10-31T07:58:31.328Z,1.73
2022-10-31T08:01:06.743Z,0.60
2022-10-31T08:03:58.135Z,0.98
2022-10-31T08:06:45.085Z,0.38
2022-10-31T08:09:24.999Z,0.20
2022-10-31T08:11:56.085Z,1.02
2022-10-31T08:14:25.327Z,1.65
2022-10-31T08:16:54.460Z,2.97
2022-10-31T08:19:22.802Z,0.43
2022-10-31T08:21:56.204Z,0.50
2022-10-31T08:24:30.729Z,2.58
2022-10-31T08:27:02.490Z,0.60
2022-10-31T08:29:31.817Z,0.20
2022-10-31T08:32:03.333Z,0.60
2022-10-31T08:34:56.007Z,1.58
2022-10-31T08:37:43.149Z,1.50
2022-10-31T08:40:14.361Z,1.83
2022-10-31T08:42:45.462Z,0.50
2022-10-31T08:48:13.738Z,2.05
2022-10-31T08:50:47.336Z,1.00
2022-10-31T08:53:37.570Z,3.38
2022-10-31T08:56:44.660Z,1.10
2022-10-31T08:59:30.990Z,3.40
2022-10-31T09:02:21.918Z,0.93
2022-10-31T09:04:52.886Z,8.75
2022-10-31T09:07:21.832Z,3.05
2022-10-31T09:09:51.129Z,0.95
2022-10-31T09:12:20.993Z,2.10
2022-10-31T09:15:15.997Z,0.25
2022-10-31T09:17:54.275Z,0.30
2022-10-31T09:20:43.687Z,0.60
2022-10-31T09:23:22.303Z,1.85
2022-10-31T09:26:01.142Z,1.02
2022-10-31T09:28:39.481Z,2.40
2022-10-31T09:31:16.404Z,1.75
2022-10-31T09:34:11.823Z,0.47
2022-10-31T09:36:48.570Z,0.77
2022-10-31T09:39:21.850Z,2.58
2022-10-31T09:42:02.163Z,0.88
2022-10-31T09:44:40.583Z,3.08
2022-10-31T09:48:02.049Z,1.45
2022-10-31T09:50:50.149Z,1.75
2022-10-31T09:54:00.236Z,2.03
2022-10-31T09:56:28.611Z,3.15
2022-10-31T09:59:01.743Z,5.53
2022-10-31T10:01:57.647Z,3.60
2022-10-31T10:04:39.371Z,1.27
2022-10-31T10:07:25.072Z,1.40
2022-10-31T10:10:03.288Z,1.85
2022-10-31T10:13:34.276Z,2.45
2022-10-31T10:16:03.590Z,1.33
2022-10-31T10:18:57.445Z,0.30
2022-10-31T10:21:46.004Z,1.98
2022-10-31T10:24:53.810Z,0.57
2022-10-31T10:27:49.669Z,0.57
2022-10-31T10:30:23.467Z,0.90
2022-10-31T10:32:53.887Z,0.98
2022-10-31T10:35:36.119Z,0.98
2022-10-31T10:38:12.139Z,0.50
2022-10-31T10:40:43.794Z,2.33
2022-10-31T10:43:25.357Z,0.68
2022-10-31T10:46:34.067Z,4.15
2022-10-31T10:49:36.530Z,3.33
2022-10-31T10:55:39.412Z,2.60
2022-10-31T10:58:09.227Z,0.25
2022-10-31T11:00:44.597Z,1.15
2022-10-31T11:03:12.513Z,0.77
2022-10-31T11:05:53.494Z,1.35
2022-10-31T11:08:34.806Z,1.00
2022-10-31T11:11:04.973Z,2.28
2022-10-31T11:13:36.064Z,2.95
2022-10-31T11:16:09.156Z,1.50
2022-10-31T11:18:49.015Z,1.48
2022-10-31T11:21:49.817Z,3.35
2022-10-31T11:24:23.779Z,1.00
2022-10-31T11:26:52.209Z,1.88
2022-10-31T11:29:55.682Z,5.82
2022-10-31T11:32:28.326Z,1.30
2022-10-31T11:35:04.061Z,1.65
2022-10-31T11:37:36.336Z,2.50
2022-10-31T11:40:06.854Z,4.45
2022-10-31T11:42:40.679Z,2.55
2022-10-31T11:49:00.404Z,0.88
2022-10-31T11:51:34.014Z,0.88
2022-10-31T11:54:07.759Z,3.63
2022-10-31T11:56:42.174Z,1.80
2022-10-31T11:59:50.079Z,4.28
2022-10-31T12:02:20.670Z,2.42
2022-10-31T12:05:12.389Z,3.13
2022-10-31T12:07:47.087Z,1.13
2022-10-31T12:10:17.283Z,1.92
2022-10-31T12:13:10.439Z,2.25
2022-10-31T12:15:46.478Z,1.75
2022-10-31T12:18:33.431Z,0.80
2022-10-31T12:21:06.548Z,2.92
2022-10-31T12:23:43.458Z,2.67
2022-10-31T12:26:30.243Z,5.10
2022-10-31T12:29:19.843Z,3.85
2022-10-31T12:32:18.751Z,2.47
2022-10-31T12:35:27.737Z,3.50
2022-10-31T12:38:29.000Z,3.50
2022-10-31T12:41:15.125Z,4.45
2022-10-31T12:47:43.023Z,5.88
2022-10-31T12:50:36.347Z,1.45
2022-10-31T12:53:07.826Z,2.00
2022-10-31T12:56:01.532Z,4.70
2022-10-31T12:58:39.244Z,1.25
2022-10-31T13:01:21.657Z,3.38
2022-10-31T13:04:02.629Z,0.90
2022-10-31T13:06:44.537Z,2.83
2022-10-31T13:10:04.071Z,0.57
2022-10-31T13:12:58.786Z,0.50
2022-10-31T13:15:28.951Z,0.93
2022-10-31T13:18:02.515Z,3.80
2022-10-31T13:20:35.485Z,2.70
2022-10-31T13:23:50.389Z,1.65
2022-10-31T13:26:48.473Z,4.53
2022-10-31T13:29:32.729Z,6.15
2022-10-31T13:32:08.365Z,3.70
2022-10-31T13:37:36.792Z,2.72
2022-10-31T13:40:12.263Z,3.13
2022-10-31T13:43:07.577Z,2.90
2022-10-31T13:45:36.006Z,3.08
2022-10-31T13:48:17.869Z,2.72
2022-10-31T13:51:16.119Z,3.53
2022-10-31T13:54:02.357Z,2.58
2022-10-31T13:57:06.256Z,3.92
2022-10-31T14:00:06.531Z,1.77
2022-10-31T14:02:56.397Z,2.83
2022-10-31T14:05:29.183Z,2.22
2022-10-31T14:07:59.513Z,4.22
2022-10-31T14:10:54.371Z,2.25
2022-10-31T14:13:56.451Z,2.22
2022-10-31T14:16:52.065Z,2.85
2022-10-31T14:20:30.533Z,2.90
2022-10-31T14:23:06.526Z,2.30
2022-10-31T14:25:37.498Z,1.23
2022-10-31T14:28:41.975Z,3.53
2022-10-31T14:31:29.517Z,2.45
2022-10-31T14:33:57.605Z,7.57
2022-10-31T14:36:38.037Z,3.33
2022-10-31T14:39:32.875Z,5.07
2022-10-31T14:42:30.921Z,3.90
2022-10-31T14:45:27.594Z,3.20
2022-10-31T14:48:08.368Z,2.40
2022-10-31T14:50:56.271Z,3.97
2022-10-31T14:53:32.315Z,3.47
2022-10-31T14:56:06.941Z,2.70
2022-10-31T14:58:49.854Z,3.15
2022-10-31T15:01:30.772Z,3.97
2022-10-31T15:04:38.737Z,3.45
2022-10-31T15:07:24.612Z,4.45
2022-10-31T15:09:59.780Z,1.40
2022-10-31T15:12:40.664Z,10.90
2022-10-31T15:15:28.917Z,2.60
2022-10-31T15:18:02.033Z,3.72
2022-10-31T15:20:39.689Z,4.97
2022-10-31T15:23:50.213Z,4.32
2022-10-31T15:26:23.172Z,4.93
2022-10-31T15:29:06.527Z,7.43
2022-10-31T15:31:35.255Z,5.80
2022-10-31T15:34:25.884Z,7.40
2022-10-31T15:36:54.484Z,3.92
2022-10-31T15:39:26.300Z,9.82
2022-10-31T15:41:58.178Z,6.40
2022-10-31T15:44:34.856Z,7.22
2022-10-31T15:47:16.916Z,6.78
2022-10-31T15:49:56.210Z,11.48
2022-10-31T15:52:34.359Z,6.68
2022-10-31T15:55:24.928Z,13.25
2022-10-31T15:58:05.864Z,8.70
2022-10-31T16:00:36.064Z,7.82
2022-10-31T16:03:15.450Z,8.85
2022-10-31T16:05:49.299Z,8.88
2022-10-31T17:46:04.541Z,13.80
2022-10-31T17:48:37.135Z,10.60
2022-10-31T17:51:06.019Z,9.43
2022-10-31T17:53:34.783Z,10.13
2022-10-31T17:56:12.664Z,9.02
2022-10-31T17:58:44.648Z,11.88
2022-10-31T18:01:22.217Z,7.72
2022-10-31T18:03:54.594Z,8.50
2022-10-31T18:06:29.241Z,7.38
2022-10-31T18:09:09.326Z,9.90
2022-10-31T18:11:49.390Z,10.73
2022-10-31T18:14:18.676Z,11.32
2022-10-31T18:16:47.009Z,8.13
2022-10-31T18:19:16.348Z,8.15
2022-10-31T18:21:47.323Z,10.60
2022-10-31T18:24:15.270Z,7.93
2022-10-31T18:26:43.394Z,9.68
2022-10-31T18:29:12.941Z,10.05
2022-10-31T18:31:43.104Z,9.88
2022-10-31T18:34:14.200Z,8.38
2022-10-31T18:36:52.763Z,10.13
2022-10-31T18:39:20.926Z,9.73
2022-10-31T18:41:50.216Z,13.40
2022-10-31T18:44:20.177Z,12.73
2022-10-31T18:46:50.104Z,12.73
2022-10-31T18:49:22.735Z,12.23
2022-10-31T18:51:50.977Z,12.65
2022-10-31T18:54:45.088Z,10.38
2022-10-31T18:57:27.285Z,12.10
2022-10-31T18:59:55.658Z,10.60
2022-10-31T19:02:25.873Z,14.70
2022-10-31T19:04:59.610Z,12.45
2022-10-31T19:07:31.825Z,9.80
2022-10-31T19:09:59.867Z,11.65
2022-10-31T19:12:36.758Z,11.35
2022-10-31T19:15:40.277Z,9.88
2022-10-31T19:18:09.296Z,11.75
2022-10-31T19:27:36.081Z,12.57
2022-10-31T19:33:13.044Z,9.32
2022-10-31T19:35:45.858Z,9.93
2022-10-31T19:38:15.264Z,14.63
2022-10-31T19:40:46.234Z,8.35
2022-10-31T19:43:14.211Z,11.50
2022-10-31T19:46:22.705Z,14.55
2022-10-31T19:49:07.301Z,10.30
2022-10-31T19:51:35.998Z,10.07
2022-10-31T19:54:03.933Z,13.18
2022-10-31T19:56:42.382Z,10.30
2022-10-31T19:59:10.474Z,10.27
2022-10-31T20:01:38.955Z,11.07
2022-10-31T20:04:14.050Z,9.30
2022-10-31T20:06:45.840Z,7.40
2022-10-31T20:09:33.836Z,12.95
2022-10-31T20:12:04.667Z,13.75
2022-10-31T20:14:34.383Z,12.65
2022-10-31T20:17:25.083Z,21.15
2022-10-31T20:19:59.619Z,13.52
2022-10-31T20:22:31.870Z,11.68
2022-10-31T20:25:00.085Z,9.70
2022-10-31T20:27:42.684Z,10.07
2022-10-31T20:30:19.513Z,10.15
2022-10-31T20:33:13.068Z,13.85
2022-10-31T20:35:44.496Z,7.30
2022-10-31T20:38:15.767Z,11.55
2022-10-31T20:41:09.351Z,12.65
2022-10-31T20:43:43.886Z,18.00
2022-10-31T20:46:29.644Z,14.55
2022-10-31T20:49:40.512Z,15.57
2022-10-31T20:52:13.830Z,17.35
2022-10-31T20:54:41.722Z,17.05
2022-10-31T20:57:09.602Z,14.38
2022-10-31T20:59:37.818Z,26.92
2022-10-31T21:02:09.826Z,15.02
2022-10-31T21:04:42.024Z,14.05
2022-10-31T21:07:10.628Z,23.25
2022-10-31T21:10:01.567Z,15.50
2022-10-31T21:12:52.149Z,15.02
2022-10-31T21:15:27.647Z,19.73
2022-10-31T21:18:04.394Z,28.33
2022-10-31T21:20:32.630Z,33.67
2022-10-31T21:23:01.088Z,32.45
2022-10-31T21:25:29.701Z,33.10
2022-10-31T21:27:58.673Z,34.85
2022-10-31T21:30:27.094Z,30.23
2022-10-31T21:32:55.235Z,31.23
2022-10-31T21:35:24.465Z,31.88
2022-10-31T21:37:53.451Z,33.63
2022-10-31T21:40:21.383Z,25.67
2022-10-31T21:42:49.892Z,26.85
2022-10-31T21:45:17.835Z,34.05
2022-10-31T21:47:46.423Z,28.23
2022-10-31T21:50:15.100Z,35.35
2022-10-31T21:52:43.589Z,32.83
2022-10-31T21:55:11.548Z,28.63
2022-10-31T21:57:40.506Z,27.85
2022-10-31T22:00:10.240Z,28.52
2022-10-31T22:02:38.653Z,29.27
2022-10-31T22:05:06.827Z,27.20
2022-10-31T22:07:34.912Z,32.08
2022-10-31T22:10:02.897Z,37.30
2022-10-31T22:12:33.665Z,33.17
2022-10-31T22:15:02.315Z,26.08
2022-10-31T22:17:30.485Z,35.53
2022-10-31T22:19:58.806Z,31.35
2022-10-31T22:22:27.606Z,26.90
2022-10-31T22:24:55.797Z,29.75
2022-10-31T22:27:24.774Z,30.63
2022-10-31T22:29:56.541Z,31.40
2022-10-31T22:32:57.090Z,23.98
2022-10-31T22:38:51.876Z,29.02
2022-10-31T22:41:22.574Z,36.45
2022-10-31T22:43:54.931Z,23.67
2022-10-31T22:50:18.700Z,19.00
2022-10-31T22:52:48.078Z,19.50
2022-10-31T22:55:58.810Z,18.20
2022-10-31T22:58:30.564Z,13.82
2022-10-31T23:00:59.223Z,18.63
2022-10-31T23:03:28.229Z,15.75
2022-10-31T23:06:00.322Z,15.43
2022-10-31T23:08:29.356Z,19.77
2022-10-31T23:10:57.998Z,15.15
2022-10-31T23:13:45.690Z,19.17
2022-10-31T23:16:14.617Z,18.58
2022-10-31T23:18:50.177Z,21.08
2022-10-31T23:21:41.801Z,20.88
2022-10-31T23:24:12.072Z,25.42
2022-10-31T23:27:01.095Z,18.40
2022-10-31T23:29:29.433Z,24.35
2022-10-31T23:32:03.553Z,24.15
2022-10-31T23:34:31.715Z,20.65
2022-10-31T23:37:01.714Z,21.45
2022-10-31T23:39:31.599Z,24.85
2022-10-31T23:42:00.895Z,16.70
2022-10-31T23:44:29.654Z,29.77
2022-10-31T23:47:02.110Z,16.80
2022-10-31T23:49:31.533Z,15.05
2022-10-31T23:52:02.170Z,16.50
2022-10-31T23:54:30.531Z,17.83
2022-10-31T23:56:59.208Z,14.50
2022-10-31T23:59:27.076Z,16.35
